Time,TemperatureF,DewpointF,PressureIn,WindDirection,WindDirectionDegrees,WindSpeedMPH,WindSpeedGustMPH,Humidity,HourlyPrecipIn,Conditions,Clouds,dailyrainin,SoftwareType,DateUTC
2013-02-07 00:01:00,49.8,44.5,29.80,ENE,67,0.0,0.0,82,0.00,,,0.00,WUHU21623XXSP,2013-02-07 06:01:00,
2013-02-07 00:06:00,49.8,44.5,29.81,ENE,67,0.0,0.0,82,0.00,,,0.00,WUHU21623XXSP,2013-02-07 06:06:00,
2013-02-07 00:11:00,49.8,44.5,29.81,ENE,67,0.0,0.0,82,0.00,,,0.00,WUHU21623XXSP,2013-02-07 06:11:00,
2013-02-07 00:16:00,49.8,44.5,29.81,ENE,67,0.0,0.0,82,0.00,,,0.00,WUHU21623XXSP,2013-02-07 06:16:00,
2013-02-07 00:21:00,50.0,44.7,29.82,ENE,67,0.0,0.0,82,0.00,,,0.00,WUHU21623XXSP,2013-02-07 06:21:00,
2013-02-07 00:26:00,50.0,44.7,29.82,ENE,67,0.0,0.0,82,0.00,,,0.00,WUHU21623XXSP,2013-02-07 06:26:00,
2013-02-07 00:31:00,50.2,44.9,29.83,ENE,67,0.0,0.0,82,0.00,,,0.00,WUHU21623XXSP,2013-02-07 06:31:00,
2013-02-07 00:36:00,50.0,44.7,29.83,ENE,67,0.0,0.0,82,0.00,,,0.00,WUHU21623XXSP,2013-02-07 06:36:00,
2013-02-07 00:41:00,50.0,45.0,29.83,ENE,67,0.0,0.0,83,0.00,,,0.00,WUHU21623XXSP,2013-02-07 06:41:00,
2013-02-07 00:46:00,50.2,45.6,29.83,ENE,67,0.0,0.0,84,0.00,,,0.00,WUHU21623XXSP,2013-02-07 06:46:00,
2013-02-07 00:51:00,50.2,45.6,29.83,ENE,67,0.0,0.0,84,0.00,,,0.00,WUHU21623XXSP,2013-02-07 06:51:00,
2013-02-07 00:56:00,50.0,45.4,29.82,ENE,67,0.0,0.0,84,0.00,,,0.00,WUHU21623XXSP,2013-02-07 06:56:00,
2013-02-07 01:01:00,50.0,45.4,29.82,ENE,67,0.0,0.0,84,0.00,,,0.00,WUHU21623XXSP,2013-02-07 07:01:00,
2013-02-07 01:06:00,50.2,45.6,29.82,ENE,67,0.0,0.0,84,0.00,,,0.00,WUHU21623XXSP,2013-02-07 07:06:00,
2013-02-07 01:11:00,50.2,45.6,29.82,ENE,67,0.0,0.0,84,0.00,,,0.00,WUHU21623XXSP,2013-02-07 07:11:00,
2013-02-07 01:16:00,50.4,45.4,29.82,ENE,67,0.0,0.0,83,0.00,,,0.00,WUHU21623XXSP,2013-02-07 07:16:00,
2013-02-07 01:21:00,50.4,45.1,29.82,ENE,67,0.0,0.0,82,0.00,,,0.00,WUHU21623XXSP,2013-02-07 07:21:00,
2013-02-07 01:26:00,50.5,45.2,29.81,ENE,67,0.0,0.0,82,0.00,,,0.00,WUHU21623XXSP,2013-02-07 07:26:00,
2013-02-07 01:31:00,50.9,45.3,29.81,ENE,67,0.0,0.0,81,0.00,,,0.00,WUHU21623XXSP,2013-02-07 07:31:00,
2013-02-07 01:36:00,51.4,45.2,29.81,ENE,67,0.0,0.0,79,0.00,,,0.00,WUHU21623XXSP,2013-02-07 07:36:00,
2013-02-07 01:41:00,51.6,45.3,29.81,ENE,67,0.0,0.0,79,0.00,,,0.00,WUHU21623XXSP,2013-02-07 07:41:00,
2013-02-07 01:46:00,51.6,45.3,29.81,ENE,67,0.0,0.0,79,0.00,,,0.00,WUHU21623XXSP,2013-02-07 07:46:00,
2013-02-07 01:51:00,51.6,45.0,29.80,ENE,67,0.0,0.0,78,0.00,,,0.00,WUHU21623XXSP,2013-02-07 07:51:00,
2013-02-07 01:56:00,51.6,45.7,29.82,ENE,67,0.0,0.0,80,0.00,,,0.00,WUHU21623XXSP,2013-02-07 07:56:00,
2013-02-07 02:01:00,50.7,46.0,29.82,ENE,67,0.0,0.0,84,0.00,,,0.00,WUHU21623XXSP,2013-02-07 08:01:00,
2013-02-07 02:06:00,50.2,46.2,29.82,ENE,67,0.0,0.0,86,0.00,,,0.00,WUHU21623XXSP,2013-02-07 08:06:00,
2013-02-07 02:11:00,49.8,46.4,29.82,ENE,67,0.0,0.0,88,0.00,,,0.00,WUHU21623XXSP,2013-02-07 08:11:00,
2013-02-07 02:16:00,49.3,46.2,29.82,ENE,67,0.0,0.0,89,0.00,,,0.00,WUHU21623XXSP,2013-02-07 08:16:00,
2013-02-07 02:21:00,49.1,46.3,29.81,ENE,67,0.0,0.0,90,0.00,,,0.00,WUHU21623XXSP,2013-02-07 08:21:00,
2013-02-07 02:26:00,48.9,46.3,29.82,NE,45,0.0,0.0,91,0.00,,,0.00,WUHU21623XXSP,2013-02-07 08:26:00,
2013-02-07 02:31:00,48.7,46.4,29.81,NE,45,0.0,0.0,92,0.08,,,0.06,WUHU21623XXSP,2013-02-07 08:31:00,
2013-02-07 02:36:00,48.4,46.4,29.81,NE,45,0.0,0.0,93,0.08,,,0.08,WUHU21623XXSP,2013-02-07 08:36:00,
2013-02-07 02:41:00,48.2,46.2,29.81,NE,45,0.0,0.0,93,0.08,,,0.08,WUHU21623XXSP,2013-02-07 08:41:00,
2013-02-07 02:46:00,48.0,46.0,29.81,NE,45,0.0,0.0,93,0.08,,,0.08,WUHU21623XXSP,2013-02-07 08:46:00,
2013-02-07 02:51:00,48.0,46.0,29.81,NE,45,0.0,0.0,93,0.10,,,0.10,WUHU21623XXSP,2013-02-07 08:51:00,
2013-02-07 02:56:00,48.0,46.3,29.81,NE,45,0.0,0.0,94,0.10,,,0.10,WUHU21623XXSP,2013-02-07 08:56:00,
2013-02-07 03:01:00,48.0,46.3,29.81,NE,45,0.0,0.0,94,0.10,,,0.10,WUHU21623XXSP,2013-02-07 09:01:00,
2013-02-07 03:06:00,48.0,46.3,29.81,NE,45,0.0,0.0,94,0.10,,,0.10,WUHU21623XXSP,2013-02-07 09:06:00,
2013-02-07 03:11:00,48.0,46.3,29.81,NE,45,0.0,0.0,94,0.10,,,0.10,WUHU21623XXSP,2013-02-07 09:11:00,
2013-02-07 03:16:00,48.0,46.3,29.80,NE,45,0.0,0.0,94,0.10,,,0.10,WUHU21623XXSP,2013-02-07 09:16:00,
2013-02-07 03:21:00,48.0,46.3,29.81,NE,45,0.0,0.0,94,0.10,,,0.10,WUHU21623XXSP,2013-02-07 09:21:00,
2013-02-07 03:26:00,48.0,46.6,29.80,NE,45,0.0,0.0,95,0.06,,,0.10,WUHU21623XXSP,2013-02-07 09:26:00,
2013-02-07 03:31:00,48.0,46.6,29.80,NE,45,0.0,0.0,95,0.04,,,0.10,WUHU21623XXSP,2013-02-07 09:31:00,
2013-02-07 03:36:00,48.0,46.6,29.80,NE,45,0.0,0.0,95,0.04,,,0.12,WUHU21623XXSP,2013-02-07 09:36:00,
2013-02-07 03:41:00,48.0,46.6,29.80,NE,45,0.0,0.0,95,0.04,,,0.12,WUHU21623XXSP,2013-02-07 09:41:00,
2013-02-07 03:46:00,48.0,46.6,29.80,NE,45,0.0,0.0,95,0.02,,,0.12,WUHU21623XXSP,2013-02-07 09:46:00,
2013-02-07 03:51:00,48.0,46.6,29.80,NE,45,0.0,0.0,95,0.02,,,0.12,WUHU21623XXSP,2013-02-07 09:51:00,
2013-02-07 03:56:00,48.0,46.6,29.80,NE,45,0.0,0.0,95,0.02,,,0.12,WUHU21623XXSP,2013-02-07 09:56:00,
2013-02-07 04:01:00,48.0,46.6,29.79,NE,45,0.0,0.0,95,0.02,,,0.12,WUHU21623XXSP,2013-02-07 10:01:00,
2013-02-07 04:06:00,47.8,46.4,29.79,NE,45,0.0,0.0,95,0.02,,,0.12,WUHU21623XXSP,2013-02-07 10:06:00,
2013-02-07 04:11:00,48.0,46.6,29.79,NE,45,0.0,0.0,95,0.02,,,0.12,WUHU21623XXSP,2013-02-07 10:11:00,
2013-02-07 04:16:00,47.8,46.4,29.79,NE,45,0.0,0.0,95,0.02,,,0.12,WUHU21623XXSP,2013-02-07 10:16:00,
2013-02-07 04:21:00,47.8,46.4,29.79,NE,45,0.0,0.0,95,0.02,,,0.12,WUHU21623XXSP,2013-02-07 10:21:00,
2013-02-07 04:26:00,47.8,46.4,29.78,NE,45,0.0,0.0,95,0.02,,,0.12,WUHU21623XXSP,2013-02-07 10:26:00,
2013-02-07 04:31:00,47.8,46.4,29.78,NE,45,0.0,0.0,95,0.00,,,0.12,WUHU21623XXSP,2013-02-07 10:31:00,
2013-02-07 04:36:00,47.7,46.3,29.78,NE,45,0.0,0.0,95,0.00,,,0.12,WUHU21623XXSP,2013-02-07 10:36:00,
2013-02-07 04:41:00,47.7,46.3,29.78,NE,45,0.0,0.0,95,0.00,,,0.12,WUHU21623XXSP,2013-02-07 10:41:00,
2013-02-07 04:46:00,47.7,46.3,29.77,NE,45,0.0,0.0,95,0.00,,,0.12,WUHU21623XXSP,2013-02-07 10:46:00,
2013-02-07 04:51:00,47.5,46.1,29.77,NE,45,0.0,0.0,95,0.02,,,0.14,WUHU21623XXSP,2013-02-07 10:51:00,
2013-02-07 04:56:00,47.5,46.1,29.77,NE,45,0.0,0.0,95,0.02,,,0.14,WUHU21623XXSP,2013-02-07 10:56:00,
2013-02-07 05:01:00,47.5,46.1,29.77,NE,45,0.0,0.0,95,0.02,,,0.14,WUHU21623XXSP,2013-02-07 11:01:00,
2013-02-07 05:06:00,47.5,46.1,29.77,NE,45,0.0,0.0,95,0.02,,,0.14,WUHU21623XXSP,2013-02-07 11:06:00,
2013-02-07 05:11:00,47.5,46.1,29.77,NE,45,0.0,0.0,95,0.02,,,0.14,WUHU21623XXSP,2013-02-07 11:11:00,
2013-02-07 05:16:00,47.5,46.1,29.76,NE,45,0.0,0.0,95,0.02,,,0.14,WUHU21623XXSP,2013-02-07 11:16:00,
2013-02-07 05:21:00,47.5,46.1,29.76,NE,45,0.0,0.0,95,0.02,,,0.14,WUHU21623XXSP,2013-02-07 11:21:00,
2013-02-07 05:26:00,47.5,46.1,29.77,NE,45,0.0,0.0,95,0.02,,,0.14,WUHU21623XXSP,2013-02-07 11:26:00,
2013-02-07 05:31:00,47.5,46.1,29.77,NE,45,0.0,0.0,95,0.04,,,0.14,WUHU21623XXSP,2013-02-07 11:31:00,
2013-02-07 05:36:00,47.5,46.1,29.77,NE,45,0.0,0.0,95,0.04,,,0.16,WUHU21623XXSP,2013-02-07 11:36:00,
2013-02-07 05:41:00,47.5,46.1,29.77,NE,45,0.0,0.0,95,0.04,,,0.16,WUHU21623XXSP,2013-02-07 11:41:00,
2013-02-07 05:46:00,47.5,46.1,29.76,NE,45,0.0,0.0,95,0.02,,,0.16,WUHU21623XXSP,2013-02-07 11:46:00,
2013-02-07 05:51:00,47.5,46.1,29.75,NE,45,0.0,0.0,95,0.02,,,0.16,WUHU21623XXSP,2013-02-07 11:51:00,
2013-02-07 05:56:00,47.5,46.1,29.76,ENE,67,0.0,0.0,95,0.02,,,0.16,WUHU21623XXSP,2013-02-07 11:56:00,
2013-02-07 06:01:00,47.5,46.1,29.76,ENE,67,0.0,1.6,95,0.02,,,0.16,WUHU21623XXSP,2013-02-07 12:01:00,
2013-02-07 06:06:00,47.5,46.1,29.76,NE,45,0.0,1.6,95,0.02,,,0.16,WUHU21623XXSP,2013-02-07 12:06:00,
2013-02-07 06:11:00,47.5,46.1,29.75,NE,45,0.0,0.0,95,0.02,,,0.16,WUHU21623XXSP,2013-02-07 12:11:00,
2013-02-07 06:16:00,47.5,46.1,29.75,ENE,67,0.0,0.0,95,0.02,,,0.16,WUHU21623XXSP,2013-02-07 12:16:00,
2013-02-07 06:21:00,47.5,46.1,29.76,ENE,67,0.0,0.0,95,0.02,,,0.16,WUHU21623XXSP,2013-02-07 12:21:00,
2013-02-07 06:26:00,47.5,46.1,29.76,ENE,67,0.0,0.0,95,0.02,,,0.16,WUHU21623XXSP,2013-02-07 12:26:00,
2013-02-07 06:31:00,47.7,46.3,29.75,ENE,67,0.0,0.0,95,0.00,,,0.16,WUHU21623XXSP,2013-02-07 12:31:00,
2013-02-07 06:36:00,47.7,46.3,29.75,NE,45,0.0,0.0,95,0.00,,,0.16,WUHU21623XXSP,2013-02-07 12:36:00,
2013-02-07 06:41:00,47.7,46.3,29.75,NE,45,0.0,0.0,95,0.00,,,0.16,WUHU21623XXSP,2013-02-07 12:41:00,
2013-02-07 06:46:00,47.8,46.4,29.75,NE,45,0.0,0.0,95,0.00,,,0.16,WUHU21623XXSP,2013-02-07 12:46:00,
2013-02-07 06:51:00,47.8,46.4,29.75,NE,45,0.0,0.0,95,0.00,,,0.16,WUHU21623XXSP,2013-02-07 12:51:00,
2013-02-07 06:56:00,48.0,46.6,29.75,NE,45,0.0,0.0,95,0.00,,,0.16,WUHU21623XXSP,2013-02-07 12:56:00,
2013-02-07 07:01:00,48.0,46.6,29.75,NE,45,0.0,0.0,95,0.00,,,0.16,WUHU21623XXSP,2013-02-07 13:01:00,
2013-02-07 07:06:00,48.0,46.6,29.75,ENE,67,2.5,2.5,95,0.00,,,0.16,WUHU21623XXSP,2013-02-07 13:06:00,
2013-02-07 07:11:00,48.4,47.0,29.75,NE,45,0.0,2.5,95,0.00,,,0.16,WUHU21623XXSP,2013-02-07 13:11:00,
2013-02-07 07:16:00,48.2,46.8,29.75,NE,45,1.1,2.5,95,0.00,,,0.16,WUHU21623XXSP,2013-02-07 13:16:00,
2013-02-07 07:21:00,48.4,47.0,29.74,NE,45,1.1,1.1,95,0.00,,,0.16,WUHU21623XXSP,2013-02-07 13:21:00,
2013-02-07 07:26:00,48.4,47.0,29.74,ENE,67,5.1,5.1,95,0.00,,,0.16,WUHU21623XXSP,2013-02-07 13:26:00,
2013-02-07 07:31:00,48.7,47.3,29.73,East,90,1.6,5.1,95,0.00,,,0.16,WUHU21623XXSP,2013-02-07 13:31:00,
2013-02-07 07:36:00,48.7,47.3,29.73,ENE,67,1.3,2.7,95,0.00,,,0.16,WUHU21623XXSP,2013-02-07 13:36:00,
2013-02-07 07:41:00,48.9,47.5,29.73,NE,45,0.0,2.7,95,0.00,,,0.16,WUHU21623XXSP,2013-02-07 13:41:00,
2013-02-07 07:46:00,48.9,47.5,29.73,ESE,112,0.0,0.0,95,0.00,,,0.16,WUHU21623XXSP,2013-02-07 13:46:00,
2013-02-07 07:51:00,49.1,47.7,29.73,NE,45,5.4,5.4,95,0.00,,,0.16,WUHU21623XXSP,2013-02-07 13:51:00,
2013-02-07 07:56:00,49.1,47.4,29.74,NE,45,1.6,6.5,94,0.00,,,0.16,WUHU21623XXSP,2013-02-07 13:56:00,
2013-02-07 08:01:00,49.1,47.4,29.74,NE,45,5.1,6.5,94,0.00,,,0.16,WUHU21623XXSP,2013-02-07 14:01:00,
2013-02-07 08:06:00,49.1,47.4,29.75,NE,45,5.1,5.1,94,0.00,,,0.16,WUHU21623XXSP,2013-02-07 14:06:00,
2013-02-07 08:11:00,49.3,47.6,29.74,ENE,67,0.4,5.1,94,0.00,,,0.16,WUHU21623XXSP,2013-02-07 14:11:00,
2013-02-07 08:16:00,49.3,47.6,29.74,ENE,67,0.4,0.4,94,0.00,,,0.16,WUHU21623XXSP,2013-02-07 14:16:00,
2013-02-07 08:21:00,49.3,47.6,29.73,ENE,67,1.1,1.1,94,0.00,,,0.16,WUHU21623XXSP,2013-02-07 14:21:00,
2013-02-07 08:26:00,49.6,47.9,29.73,ENE,67,4.7,4.7,94,0.00,,,0.16,WUHU21623XXSP,2013-02-07 14:26:00,
2013-02-07 08:31:00,49.6,47.9,29.73,ENE,67,0.0,4.7,94,0.00,,,0.16,WUHU21623XXSP,2013-02-07 14:31:00,
2013-02-07 08:36:00,49.6,47.9,29.72,NE,45,7.4,7.4,94,0.00,,,0.16,WUHU21623XXSP,2013-02-07 14:36:00,
2013-02-07 08:41:00,49.6,47.9,29.72,NE,45,0.0,7.4,94,0.00,,,0.16,WUHU21623XXSP,2013-02-07 14:41:00,
2013-02-07 08:46:00,49.6,47.9,29.72,NE,45,7.4,7.4,94,0.00,,,0.16,WUHU21623XXSP,2013-02-07 14:46:00,
2013-02-07 08:51:00,49.6,47.9,29.72,NE,45,2.9,7.4,94,0.00,,,0.16,WUHU21623XXSP,2013-02-07 14:51:00,
2013-02-07 08:56:00,49.6,47.9,29.71,ENE,67,0.0,6.0,94,0.00,,,0.16,WUHU21623XXSP,2013-02-07 14:56:00,
2013-02-07 09:01:00,49.6,47.9,29.71,ENE,67,1.3,6.0,94,0.00,,,0.16,WUHU21623XXSP,2013-02-07 15:01:00,
2013-02-07 09:06:00,49.6,47.9,29.71,ENE,67,1.3,1.3,94,0.00,,,0.16,WUHU21623XXSP,2013-02-07 15:06:00,
2013-02-07 09:11:00,49.8,48.1,29.71,ENE,67,3.8,3.8,94,0.00,,,0.16,WUHU21623XXSP,2013-02-07 15:11:00,
2013-02-07 09:16:00,49.8,48.1,29.71,ENE,67,3.1,3.8,94,0.00,,,0.16,WUHU21623XXSP,2013-02-07 15:16:00,
2013-02-07 09:21:00,49.8,48.1,29.71,ENE,67,0.0,3.8,94,0.00,,,0.16,WUHU21623XXSP,2013-02-07 15:21:00,
2013-02-07 09:26:00,50.2,48.5,29.71,ENE,67,0.0,2.7,94,0.00,,,0.16,WUHU21623XXSP,2013-02-07 15:26:00,
2013-02-07 09:31:00,50.2,48.5,29.71,ENE,67,0.0,0.0,94,0.00,,,0.16,WUHU21623XXSP,2013-02-07 15:31:00,
2013-02-07 09:36:00,50.2,48.5,29.71,ENE,67,2.2,2.2,94,0.00,,,0.16,WUHU21623XXSP,2013-02-07 15:36:00,
2013-02-07 09:41:00,50.2,48.5,29.72,ENE,67,0.0,2.2,94,0.00,,,0.16,WUHU21623XXSP,2013-02-07 15:41:00,
2013-02-07 09:46:00,50.2,48.5,29.72,ENE,67,2.0,2.0,94,0.00,,,0.16,WUHU21623XXSP,2013-02-07 15:46:00,
2013-02-07 09:51:00,50.2,48.5,29.72,ENE,67,1.6,2.0,94,0.00,,,0.16,WUHU21623XXSP,2013-02-07 15:51:00,
2013-02-07 09:56:00,50.2,48.5,29.72,ENE,67,3.1,3.1,94,0.00,,,0.16,WUHU21623XXSP,2013-02-07 15:56:00,
2013-02-07 10:02:00,50.2,48.5,29.72,ENE,67,2.7,3.1,94,0.00,,,0.16,WUHU21623XXSP,2013-02-07 16:02:00,
2013-02-07 10:07:00,50.4,48.7,29.72,ENE,67,1.6,2.7,94,0.00,,,0.16,WUHU21623XXSP,2013-02-07 16:07:00,
2013-02-07 10:12:00,50.4,48.7,29.71,ENE,67,3.4,4.7,94,0.00,,,0.16,WUHU21623XXSP,2013-02-07 16:12:00,
2013-02-07 10:17:00,50.5,48.8,29.72,ENE,67,3.8,4.7,94,0.00,,,0.16,WUHU21623XXSP,2013-02-07 16:17:00,
2013-02-07 10:22:00,50.5,48.8,29.71,ENE,67,2.2,3.8,94,0.00,,,0.16,WUHU21623XXSP,2013-02-07 16:22:00,
2013-02-07 10:27:00,50.7,49.0,29.71,ENE,67,0.0,2.9,94,0.00,,,0.16,WUHU21623XXSP,2013-02-07 16:27:00,
2013-02-07 10:32:00,50.7,49.0,29.71,ENE,67,4.0,4.0,94,0.00,,,0.16,WUHU21623XXSP,2013-02-07 16:32:00,
2013-02-07 10:37:00,50.7,49.0,29.70,ENE,67,2.7,4.0,94,0.00,,,0.16,WUHU21623XXSP,2013-02-07 16:37:00,
2013-02-07 10:42:00,50.7,49.0,29.71,NE,45,4.7,7.2,94,0.00,,,0.16,WUHU21623XXSP,2013-02-07 16:42:00,
2013-02-07 10:47:00,50.7,49.0,29.71,NE,45,6.7,7.2,94,0.00,,,0.16,WUHU21623XXSP,2013-02-07 16:47:00,
2013-02-07 10:52:00,50.7,49.3,29.71,NE,45,2.2,6.7,95,0.02,,,0.18,WUHU21623XXSP,2013-02-07 16:52:00,
2013-02-07 10:57:00,50.7,49.3,29.71,ENE,67,0.0,5.6,95,0.04,,,0.18,WUHU21623XXSP,2013-02-07 16:57:00,
2013-02-07 11:02:00,50.5,49.1,29.70,ENE,67,1.3,4.0,95,0.04,,,0.20,WUHU21623XXSP,2013-02-07 17:02:00,
2013-02-07 11:07:00,50.5,49.1,29.70,ENE,67,0.0,2.7,95,0.04,,,0.20,WUHU21623XXSP,2013-02-07 17:07:00,
2013-02-07 11:12:00,50.5,49.1,29.70,ENE,67,4.0,4.0,95,0.04,,,0.20,WUHU21623XXSP,2013-02-07 17:12:00,
2013-02-07 11:17:00,50.7,49.3,29.69,ENE,67,3.6,4.0,95,0.04,,,0.20,WUHU21623XXSP,2013-02-07 17:17:00,
2013-02-07 11:22:00,51.1,49.7,29.69,NE,45,2.0,3.6,95,0.04,,,0.20,WUHU21623XXSP,2013-02-07 17:22:00,
2013-02-07 11:27:00,51.1,49.7,29.69,ENE,67,4.3,4.3,95,0.04,,,0.20,WUHU21623XXSP,2013-02-07 17:27:00,
2013-02-07 11:32:00,51.1,49.7,29.68,NE,45,3.8,4.3,95,0.04,,,0.20,WUHU21623XXSP,2013-02-07 17:32:00,
2013-02-07 11:37:00,51.3,49.9,29.68,NE,45,4.5,6.0,95,0.04,,,0.20,WUHU21623XXSP,2013-02-07 17:37:00,
2013-02-07 11:42:00,51.4,50.0,29.68,ENE,67,0.0,6.0,95,0.04,,,0.20,WUHU21623XXSP,2013-02-07 17:42:00,
2013-02-07 11:47:00,51.4,50.0,29.68,East,90,0.0,5.8,95,0.02,,,0.20,WUHU21623XXSP,2013-02-07 17:47:00,
2013-02-07 11:52:00,51.4,50.0,29.68,East,90,0.9,4.0,95,0.02,,,0.20,WUHU21623XXSP,2013-02-07 17:52:00,
2013-02-07 11:57:00,51.4,50.3,29.67,East,90,2.9,2.9,96,0.00,,,0.20,WUHU21623XXSP,2013-02-07 17:57:00,
2013-02-07 12:02:00,51.4,50.3,29.67,East,90,1.3,2.9,96,0.00,,,0.20,WUHU21623XXSP,2013-02-07 18:02:00,
2013-02-07 12:07:00,51.4,50.3,29.67,NE,45,3.8,3.8,96,0.00,,,0.20,WUHU21623XXSP,2013-02-07 18:07:00,
2013-02-07 12:12:00,51.6,50.5,29.66,NE,45,2.9,3.8,96,0.00,,,0.20,WUHU21623XXSP,2013-02-07 18:12:00,
2013-02-07 12:17:00,51.8,50.7,29.66,NE,45,0.0,2.9,96,0.00,,,0.20,WUHU21623XXSP,2013-02-07 18:17:00,
2013-02-07 12:22:00,52.0,50.9,29.66,NE,45,4.5,4.5,96,0.00,,,0.20,WUHU21623XXSP,2013-02-07 18:22:00,
2013-02-07 12:27:00,51.6,50.2,29.66,ENE,67,0.7,4.5,95,0.00,,,0.20,WUHU21623XXSP,2013-02-07 18:27:00,
2013-02-07 12:32:00,51.6,50.2,29.65,ENE,67,5.4,5.4,95,0.00,,,0.20,WUHU21623XXSP,2013-02-07 18:32:00,
2013-02-07 12:37:00,51.6,50.2,29.66,ENE,67,3.4,5.4,95,0.00,,,0.20,WUHU21623XXSP,2013-02-07 18:37:00,
2013-02-07 12:42:00,51.6,50.5,29.65,NE,45,7.2,7.2,96,0.00,,,0.20,WUHU21623XXSP,2013-02-07 18:42:00,
2013-02-07 12:47:00,51.8,50.4,29.65,NE,45,2.2,7.2,95,0.00,,,0.20,WUHU21623XXSP,2013-02-07 18:47:00,
2013-02-07 12:52:00,51.6,50.2,29.65,ENE,67,3.8,3.8,95,0.00,,,0.20,WUHU21623XXSP,2013-02-07 18:52:00,
2013-02-07 12:57:00,51.8,50.4,29.65,ENE,67,1.3,3.8,95,0.00,,,0.20,WUHU21623XXSP,2013-02-07 18:57:00,
2013-02-07 13:02:00,52.0,50.6,29.65,NE,45,0.0,2.0,95,0.00,,,0.20,WUHU21623XXSP,2013-02-07 19:02:00,
2013-02-07 13:07:00,51.8,50.4,29.65,NE,45,1.6,3.1,95,0.00,,,0.20,WUHU21623XXSP,2013-02-07 19:07:00,
2013-02-07 13:12:00,51.8,50.4,29.65,NE,45,1.3,3.1,95,0.00,,,0.20,WUHU21623XXSP,2013-02-07 19:12:00,
2013-02-07 13:17:00,51.8,50.4,29.65,NE,45,6.0,6.5,95,0.00,,,0.20,WUHU21623XXSP,2013-02-07 19:17:00,
2013-02-07 13:22:00,51.6,50.2,29.65,NE,45,4.3,6.5,95,0.00,,,0.20,WUHU21623XXSP,2013-02-07 19:22:00,
2013-02-07 13:27:00,51.6,50.2,29.64,ENE,67,6.7,6.7,95,0.00,,,0.20,WUHU21623XXSP,2013-02-07 19:27:00,
2013-02-07 13:32:00,51.6,50.2,29.64,NE,45,5.6,6.7,95,0.02,,,0.20,WUHU21623XXSP,2013-02-07 19:32:00,
2013-02-07 13:37:00,51.6,50.5,29.64,ENE,67,3.4,5.6,96,0.02,,,0.22,WUHU21623XXSP,2013-02-07 19:37:00,
2013-02-07 13:42:00,52.0,50.9,29.64,NE,45,3.1,4.7,96,0.02,,,0.22,WUHU21623XXSP,2013-02-07 19:42:00,
2013-02-07 13:47:00,52.0,50.9,29.64,ENE,67,0.0,4.7,96,0.02,,,0.22,WUHU21623XXSP,2013-02-07 19:47:00,
2013-02-07 13:52:00,52.0,50.9,29.64,ENE,67,5.6,5.6,96,0.02,,,0.22,WUHU21623XXSP,2013-02-07 19:52:00,
2013-02-07 13:57:00,52.0,50.6,29.64,NE,45,0.0,5.6,95,0.02,,,0.22,WUHU21623XXSP,2013-02-07 19:57:00,
2013-02-07 14:02:00,52.0,50.6,29.64,NE,45,0.0,0.0,95,0.02,,,0.22,WUHU21623XXSP,2013-02-07 20:02:00,
2013-02-07 14:07:00,51.6,50.2,29.64,NE,45,0.7,0.7,95,0.02,,,0.22,WUHU21623XXSP,2013-02-07 20:07:00,
2013-02-07 14:12:00,51.8,50.4,29.64,NE,45,0.0,0.7,95,0.02,,,0.22,WUHU21623XXSP,2013-02-07 20:12:00,
2013-02-07 14:17:00,52.0,50.6,29.64,ENE,67,0.7,0.7,95,0.02,,,0.22,WUHU21623XXSP,2013-02-07 20:17:00,
2013-02-07 14:22:00,52.0,50.6,29.63,NE,45,1.8,2.2,95,0.02,,,0.22,WUHU21623XXSP,2013-02-07 20:22:00,
2013-02-07 14:27:00,52.0,50.6,29.63,NE,45,1.8,2.2,95,0.02,,,0.22,WUHU21623XXSP,2013-02-07 20:27:00,
2013-02-07 14:32:00,52.0,50.6,29.63,NE,45,1.8,1.8,95,0.00,,,0.22,WUHU21623XXSP,2013-02-07 20:32:00,
2013-02-07 14:37:00,52.0,50.6,29.63,ENE,67,2.5,2.5,95,0.00,,,0.22,WUHU21623XXSP,2013-02-07 20:37:00,
2013-02-07 14:42:00,52.0,50.6,29.63,NE,45,2.0,2.5,95,0.00,,,0.22,WUHU21623XXSP,2013-02-07 20:42:00,
2013-02-07 14:47:00,52.0,50.6,29.64,NE,45,5.1,5.1,95,0.00,,,0.22,WUHU21623XXSP,2013-02-07 20:47:00,
2013-02-07 14:52:00,52.0,50.6,29.63,NE,45,5.8,5.8,95,0.00,,,0.22,WUHU21623XXSP,2013-02-07 20:52:00,
2013-02-07 14:57:00,52.2,50.8,29.63,NE,45,2.2,5.8,95,0.00,,,0.22,WUHU21623XXSP,2013-02-07 20:57:00,
2013-02-07 15:02:00,52.0,50.6,29.63,NE,45,0.0,2.2,95,0.00,,,0.22,WUHU21623XXSP,2013-02-07 21:02:00,
2013-02-07 15:07:00,51.8,50.4,29.63,SE,135,0.0,6.0,95,0.00,,,0.22,WUHU21623XXSP,2013-02-07 21:07:00,
2013-02-07 15:12:00,51.8,50.4,29.63,ENE,67,3.4,6.0,95,0.00,,,0.22,WUHU21623XXSP,2013-02-07 21:12:00,
2013-02-07 15:17:00,51.6,50.2,29.63,ENE,67,0.0,5.6,95,0.00,,,0.22,WUHU21623XXSP,2013-02-07 21:17:00,
2013-02-07 15:22:00,52.0,50.6,29.63,ENE,67,0.0,5.8,95,0.00,,,0.22,WUHU21623XXSP,2013-02-07 21:22:00,
2013-02-07 15:27:00,51.8,50.4,29.63,ENE,67,0.0,5.8,95,0.00,,,0.22,WUHU21623XXSP,2013-02-07 21:27:00,
2013-02-07 15:32:00,51.8,50.4,29.64,ENE,67,4.5,4.5,95,0.00,,,0.22,WUHU21623XXSP,2013-02-07 21:32:00,
2013-02-07 15:37:00,51.6,49.9,29.64,NE,45,0.0,4.5,94,0.00,,,0.22,WUHU21623XXSP,2013-02-07 21:37:00,
2013-02-07 15:42:00,51.6,49.9,29.64,NE,45,2.0,3.1,94,0.00,,,0.22,WUHU21623XXSP,2013-02-07 21:42:00,
2013-02-07 15:47:00,51.6,50.2,29.63,NE,45,0.0,2.0,95,0.00,,,0.22,WUHU21623XXSP,2013-02-07 21:47:00,
2013-02-07 15:52:00,51.6,49.9,29.64,NE,45,1.1,3.6,94,0.00,,,0.22,WUHU21623XXSP,2013-02-07 21:52:00,
2013-02-07 15:57:00,51.6,49.9,29.63,NNE,22,0.0,3.6,94,0.00,,,0.22,WUHU21623XXSP,2013-02-07 21:57:00,
2013-02-07 16:02:00,51.8,50.4,29.63,NNE,22,0.0,1.1,95,0.00,,,0.22,WUHU21623XXSP,2013-02-07 22:02:00,
2013-02-07 16:07:00,51.8,50.1,29.64,NE,45,4.5,4.5,94,0.00,,,0.22,WUHU21623XXSP,2013-02-07 22:07:00,
2013-02-07 16:12:00,51.6,49.9,29.63,ENE,67,3.8,4.5,94,0.00,,,0.22,WUHU21623XXSP,2013-02-07 22:12:00,
2013-02-07 16:17:00,51.6,49.9,29.64,ENE,67,0.0,3.8,94,0.00,,,0.22,WUHU21623XXSP,2013-02-07 22:17:00,
2013-02-07 16:22:00,51.8,50.1,29.63,ESE,112,1.8,1.8,94,0.00,,,0.22,WUHU21623XXSP,2013-02-07 22:22:00,
2013-02-07 16:27:00,51.6,49.9,29.64,ESE,112,1.3,2.5,94,0.00,,,0.22,WUHU21623XXSP,2013-02-07 22:27:00,
2013-02-07 16:32:00,51.6,49.9,29.63,East,90,1.6,2.5,94,0.00,,,0.22,WUHU21623XXSP,2013-02-07 22:32:00,
2013-02-07 16:37:00,51.6,49.9,29.64,NE,45,2.7,2.7,94,0.00,,,0.22,WUHU21623XXSP,2013-02-07 22:37:00,
2013-02-07 16:42:00,51.6,50.2,29.64,NE,45,5.4,5.4,95,0.00,,,0.22,WUHU21623XXSP,2013-02-07 22:42:00,
2013-02-07 16:47:00,51.6,50.2,29.64,ENE,67,1.8,5.4,95,0.00,,,0.22,WUHU21623XXSP,2013-02-07 22:47:00,
2013-02-07 16:52:00,51.4,50.0,29.64,North,0,0.0,2.2,95,0.00,,,0.22,WUHU21623XXSP,2013-02-07 22:52:00,
2013-02-07 16:57:00,51.4,50.0,29.64,North,0,0.0,2.2,95,0.00,,,0.22,WUHU21623XXSP,2013-02-07 22:57:00,
2013-02-07 17:02:00,51.4,50.0,29.64,NNE,22,0.0,3.6,95,0.00,,,0.22,WUHU21623XXSP,2013-02-07 23:02:00,
2013-02-07 17:07:00,51.3,49.9,29.64,NE,45,3.8,4.3,95,0.00,,,0.22,WUHU21623XXSP,2013-02-07 23:07:00,
2013-02-07 17:12:00,51.3,49.9,29.64,NE,45,0.0,4.3,95,0.00,,,0.22,WUHU21623XXSP,2013-02-07 23:12:00,
2013-02-07 17:17:00,51.1,49.7,29.64,NE,45,1.6,1.6,95,0.00,,,0.22,WUHU21623XXSP,2013-02-07 23:17:00,
2013-02-07 17:22:00,51.1,49.7,29.64,NE,45,1.8,7.2,95,0.00,,,0.22,WUHU21623XXSP,2013-02-07 23:22:00,
2013-02-07 17:27:00,51.1,49.7,29.64,NE,45,2.7,7.2,95,0.00,,,0.22,WUHU21623XXSP,2013-02-07 23:27:00,
2013-02-07 17:32:00,50.9,49.5,29.65,NE,45,2.5,2.9,95,0.00,,,0.22,WUHU21623XXSP,2013-02-07 23:32:00,
2013-02-07 17:37:00,50.9,49.5,29.65,NE,45,0.0,2.9,95,0.00,,,0.22,WUHU21623XXSP,2013-02-07 23:37:00,
2013-02-07 17:42:00,50.7,49.3,29.65,NE,45,0.0,2.9,95,0.00,,,0.22,WUHU21623XXSP,2013-02-07 23:42:00,
2013-02-07 17:47:00,50.7,49.3,29.65,ENE,67,2.2,2.5,95,0.00,,,0.22,WUHU21623XXSP,2013-02-07 23:47:00,
2013-02-07 17:52:00,50.7,49.3,29.64,ENE,67,0.0,2.5,95,0.00,,,0.22,WUHU21623XXSP,2013-02-07 23:52:00,
2013-02-07 17:57:00,50.7,49.3,29.65,ENE,67,1.3,2.0,95,0.00,,,0.22,WUHU21623XXSP,2013-02-07 23:57:00,
2013-02-07 18:02:00,50.7,49.3,29.65,ENE,67,2.7,2.7,95,0.00,,,0.22,WUHU21623XXSP,2013-02-08 00:02:00,
2013-02-07 18:07:00,50.5,49.1,29.65,ENE,67,0.0,2.7,95,0.00,,,0.22,WUHU21623XXSP,2013-02-08 00:07:00,
2013-02-07 18:12:00,50.5,49.1,29.65,NE,45,2.5,6.0,95,0.00,,,0.22,WUHU21623XXSP,2013-02-08 00:12:00,
2013-02-07 18:17:00,50.4,49.0,29.65,NE,45,2.9,6.0,95,0.00,,,0.22,WUHU21623XXSP,2013-02-08 00:17:00,
2013-02-07 18:22:00,50.4,49.0,29.66,NE,45,0.7,2.9,95,0.00,,,0.22,WUHU21623XXSP,2013-02-08 00:22:00,
2013-02-07 18:27:00,50.4,49.3,29.66,ENE,67,1.8,2.0,96,0.00,,,0.22,WUHU21623XXSP,2013-02-08 00:27:00,
2013-02-07 18:32:00,50.2,49.1,29.66,NE,45,1.8,2.0,96,0.00,,,0.22,WUHU21623XXSP,2013-02-08 00:32:00,
2013-02-07 18:37:00,50.2,49.1,29.66,NE,45,0.0,3.4,96,0.00,,,0.22,WUHU21623XXSP,2013-02-08 00:37:00,
2013-02-07 18:42:00,50.2,49.1,29.67,ENE,67,3.8,3.8,96,0.00,,,0.22,WUHU21623XXSP,2013-02-08 00:42:00,
2013-02-07 18:47:00,50.2,49.1,29.66,NE,45,3.6,3.8,96,0.00,,,0.22,WUHU21623XXSP,2013-02-08 00:47:00,
2013-02-07 18:52:00,50.0,48.9,29.66,NE,45,0.0,3.6,96,0.00,,,0.22,WUHU21623XXSP,2013-02-08 00:52:00,
2013-02-07 18:57:00,50.0,48.9,29.66,NE,45,4.0,4.0,96,0.00,,,0.22,WUHU21623XXSP,2013-02-08 00:57:00,
2013-02-07 19:02:00,50.0,48.9,29.66,NE,45,0.4,4.0,96,0.00,,,0.22,WUHU21623XXSP,2013-02-08 01:02:00,
2013-02-07 19:07:00,49.8,48.7,29.66,NE,45,0.0,4.0,96,0.00,,,0.22,WUHU21623XXSP,2013-02-08 01:07:00,
2013-02-07 19:12:00,49.8,48.7,29.66,NE,45,0.0,2.2,96,0.00,,,0.22,WUHU21623XXSP,2013-02-08 01:12:00,
2013-02-07 19:17:00,49.8,48.7,29.66,NE,45,0.0,0.0,96,0.00,,,0.22,WUHU21623XXSP,2013-02-08 01:17:00,
2013-02-07 19:22:00,49.8,48.7,29.67,NE,45,0.0,0.0,96,0.00,,,0.22,WUHU21623XXSP,2013-02-08 01:22:00,
2013-02-07 19:27:00,49.8,48.7,29.67,NE,45,0.0,0.0,96,0.00,,,0.22,WUHU21623XXSP,2013-02-08 01:27:00,
2013-02-07 19:32:00,49.8,48.7,29.67,NE,45,2.9,2.9,96,0.00,,,0.22,WUHU21623XXSP,2013-02-08 01:32:00,
2013-02-07 19:37:00,49.8,48.7,29.67,NE,45,0.0,2.9,96,0.00,,,0.22,WUHU21623XXSP,2013-02-08 01:37:00,
2013-02-07 19:42:00,49.8,48.7,29.67,NE,45,0.9,0.9,96,0.00,,,0.22,WUHU21623XXSP,2013-02-08 01:42:00,
2013-02-07 19:47:00,49.8,48.7,29.67,NE,45,0.0,0.9,96,0.00,,,0.22,WUHU21623XXSP,2013-02-08 01:47:00,
2013-02-07 19:52:00,49.8,48.7,29.68,NE,45,1.8,1.8,96,0.00,,,0.22,WUHU21623XXSP,2013-02-08 01:52:00,
2013-02-07 19:57:00,49.8,48.7,29.68,NE,45,0.0,1.8,96,0.00,,,0.22,WUHU21623XXSP,2013-02-08 01:57:00,
2013-02-07 20:02:00,49.8,48.7,29.67,NE,45,0.0,2.2,96,0.00,,,0.22,WUHU21623XXSP,2013-02-08 02:02:00,
2013-02-07 20:07:00,49.6,48.2,29.67,NE,45,0.0,2.2,95,0.00,,,0.22,WUHU21623XXSP,2013-02-08 02:07:00,
2013-02-07 20:12:00,49.6,48.5,29.67,NE,45,3.4,3.4,96,0.00,,,0.22,WUHU21623XXSP,2013-02-08 02:12:00,
2013-02-07 20:17:00,49.6,48.5,29.67,NE,45,0.0,3.4,96,0.00,,,0.22,WUHU21623XXSP,2013-02-08 02:17:00,
2013-02-07 20:22:00,49.6,48.5,29.68,NE,45,0.0,2.5,96,0.00,,,0.22,WUHU21623XXSP,2013-02-08 02:22:00,
2013-02-07 20:27:00,49.6,48.5,29.68,NE,45,0.0,0.0,96,0.00,,,0.22,WUHU21623XXSP,2013-02-08 02:27:00,
2013-02-07 20:32:00,49.6,48.5,29.68,NE,45,0.0,0.0,96,0.00,,,0.22,WUHU21623XXSP,2013-02-08 02:32:00,
2013-02-07 20:37:00,49.6,48.5,29.67,NE,45,0.0,0.0,96,0.00,,,0.22,WUHU21623XXSP,2013-02-08 02:37:00,
2013-02-07 20:42:00,49.6,48.5,29.67,NE,45,0.0,0.0,96,0.00,,,0.22,WUHU21623XXSP,2013-02-08 02:42:00,
2013-02-07 20:47:00,49.5,48.4,29.67,NE,45,0.0,0.0,96,0.00,,,0.22,WUHU21623XXSP,2013-02-08 02:47:00,
2013-02-07 20:52:00,49.3,48.2,29.67,NE,45,0.0,0.0,96,0.00,,,0.22,WUHU21623XXSP,2013-02-08 02:52:00,
2013-02-07 20:57:00,49.3,48.2,29.66,NE,45,0.0,0.0,96,0.00,,,0.22,WUHU21623XXSP,2013-02-08 02:57:00,
2013-02-07 21:02:00,49.3,48.2,29.67,NE,45,0.0,0.7,96,0.00,,,0.22,WUHU21623XXSP,2013-02-08 03:02:00,
2013-02-07 21:07:00,49.3,48.2,29.67,NE,45,0.0,0.7,96,0.00,,,0.22,WUHU21623XXSP,2013-02-08 03:07:00,
2013-02-07 21:12:00,49.3,48.2,29.67,NE,45,1.1,1.1,96,0.00,,,0.22,WUHU21623XXSP,2013-02-08 03:12:00,
2013-02-07 21:17:00,49.3,48.2,29.68,NE,45,0.0,1.8,96,0.00,,,0.22,WUHU21623XXSP,2013-02-08 03:17:00,
2013-02-07 21:22:00,49.3,48.2,29.68,NE,45,1.3,1.8,96,0.00,,,0.22,WUHU21623XXSP,2013-02-08 03:22:00,
2013-02-07 21:27:00,49.5,48.4,29.68,NE,45,1.8,3.1,96,0.00,,,0.22,WUHU21623XXSP,2013-02-08 03:27:00,
2013-02-07 21:32:00,49.5,48.4,29.68,NE,45,0.0,3.1,96,0.00,,,0.22,WUHU21623XXSP,2013-02-08 03:32:00,
2013-02-07 21:37:00,49.5,48.4,29.69,NE,45,0.0,0.0,96,0.00,,,0.22,WUHU21623XXSP,2013-02-08 03:37:00,
2013-02-07 21:42:00,49.6,48.5,29.69,NE,45,1.8,1.8,96,0.00,,,0.22,WUHU21623XXSP,2013-02-08 03:42:00,
2013-02-07 21:47:00,49.6,48.5,29.69,NE,45,0.9,1.8,96,0.00,,,0.22,WUHU21623XXSP,2013-02-08 03:47:00,
2013-02-07 21:52:00,49.5,48.4,29.69,NE,45,0.0,0.9,96,0.00,,,0.22,WUHU21623XXSP,2013-02-08 03:52:00,
2013-02-07 21:57:00,49.6,48.5,29.69,NE,45,0.0,0.0,96,0.00,,,0.22,WUHU21623XXSP,2013-02-08 03:57:00,
2013-02-07 22:03:00,49.6,48.5,29.69,NE,45,0.0,0.0,96,0.00,,,0.22,WUHU21623XXSP,2013-02-08 04:03:00,
2013-02-07 22:08:00,49.6,48.5,29.69,NE,45,0.0,0.0,96,0.00,,,0.22,WUHU21623XXSP,2013-02-08 04:08:00,
2013-02-07 22:13:00,49.6,48.5,29.69,NE,45,0.0,0.0,96,0.00,,,0.22,WUHU21623XXSP,2013-02-08 04:13:00,
2013-02-07 22:18:00,49.6,48.5,29.69,NE,45,0.0,0.0,96,0.00,,,0.22,WUHU21623XXSP,2013-02-08 04:18:00,
2013-02-07 22:23:00,49.5,48.4,29.69,NE,45,0.0,0.0,96,0.00,,,0.22,WUHU21623XXSP,2013-02-08 04:23:00,
2013-02-07 22:28:00,49.5,48.4,29.69,NE,45,0.0,0.0,96,0.00,,,0.22,WUHU21623XXSP,2013-02-08 04:28:00,
2013-02-07 22:33:00,49.6,48.5,29.69,NE,45,0.0,0.0,96,0.00,,,0.22,WUHU21623XXSP,2013-02-08 04:33:00,
2013-02-07 22:38:00,49.6,48.5,29.69,NE,45,0.0,0.0,96,0.00,,,0.22,WUHU21623XXSP,2013-02-08 04:38:00,
2013-02-07 22:43:00,49.5,48.4,29.69,NE,45,0.0,0.0,96,0.00,,,0.22,WUHU21623XXSP,2013-02-08 04:43:00,
2013-02-07 22:48:00,49.5,48.4,29.69,NE,45,0.0,0.0,96,0.00,,,0.22,WUHU21623XXSP,2013-02-08 04:48:00,
2013-02-07 22:53:00,49.5,48.4,29.69,NE,45,0.0,0.0,96,0.00,,,0.22,WUHU21623XXSP,2013-02-08 04:53:00,
2013-02-07 22:58:00,49.5,48.4,29.69,NE,45,0.0,0.0,96,0.00,,,0.22,WUHU21623XXSP,2013-02-08 04:58:00,
2013-02-07 23:03:00,49.6,48.5,29.69,NE,45,0.0,0.0,96,0.00,,,0.22,WUHU21623XXSP,2013-02-08 05:03:00,
2013-02-07 23:08:00,49.6,48.5,29.69,NE,45,0.0,0.0,96,0.00,,,0.22,WUHU21623XXSP,2013-02-08 05:08:00,
2013-02-07 23:13:00,49.6,48.5,29.69,NE,45,0.0,0.0,96,0.00,,,0.22,WUHU21623XXSP,2013-02-08 05:13:00,
2013-02-07 23:18:00,49.5,48.4,29.69,NE,45,0.0,0.0,96,0.00,,,0.22,WUHU21623XXSP,2013-02-08 05:18:00,
2013-02-07 23:23:00,49.5,48.4,29.69,NE,45,0.0,0.0,96,0.00,,,0.22,WUHU21623XXSP,2013-02-08 05:23:00,
2013-02-07 23:28:00,49.3,48.2,29.69,NE,45,0.0,0.0,96,0.00,,,0.22,WUHU21623XXSP,2013-02-08 05:28:00,
2013-02-07 23:33:00,49.3,48.2,29.69,NE,45,0.0,0.0,96,0.00,,,0.22,WUHU21623XXSP,2013-02-08 05:33:00,
2013-02-07 23:38:00,49.3,48.2,29.68,NE,45,0.0,0.0,96,0.00,,,0.22,WUHU21623XXSP,2013-02-08 05:38:00,
2013-02-07 23:43:00,49.3,48.2,29.68,NE,45,0.0,0.0,96,0.00,,,0.22,WUHU21623XXSP,2013-02-08 05:43:00,
2013-02-07 23:48:00,49.3,48.2,29.68,NE,45,0.0,0.0,96,0.00,,,0.22,WUHU21623XXSP,2013-02-08 05:48:00,
2013-02-07 23:53:00,49.3,48.2,29.68,NE,45,0.0,0.0,96,0.00,,,0.22,WUHU21623XXSP,2013-02-08 05:53:00,
2013-02-07 23:58:00,49.3,48.2,29.68,NE,45,0.0,0.0,96,0.00,,,0.22,WUHU21623XXSP,2013-02-08 05:58:00,